createdAt,value
2022-11-08T00:04:18.851Z,11.69
2022-11-08T00:09:39.178Z,11.71
2022-11-08T00:14:41.364Z,11.72
2022-11-08T00:19:44.363Z,11.74
2022-11-08T00:24:46.695Z,11.76
2022-11-08T00:29:48.726Z,11.77
2022-11-08T00:34:51.235Z,11.76
2022-11-08T00:39:53.200Z,11.76
2022-11-08T00:44:55.027Z,11.75
2022-11-08T00:49:56.809Z,11.73
2022-11-08T00:54:58.650Z,11.72
2022-11-08T01:00:00.549Z,11.73
2022-11-08T01:05:02.473Z,11.75
2022-11-08T01:10:05.809Z,11.75
2022-11-08T01:15:08.011Z,11.75
2022-11-08T01:20:10.210Z,11.74
2022-11-08T01:25:12.093Z,11.74
2022-11-08T01:30:13.990Z,11.73
2022-11-08T01:35:16.459Z,11.72
2022-11-08T01:40:18.448Z,11.72
2022-11-08T01:45:57.420Z,11.71
2022-11-08T01:51:00.473Z,11.69
2022-11-08T01:56:03.164Z,11.69
2022-11-08T02:01:05.285Z,11.68
2022-11-08T02:06:08.918Z,11.65
2022-11-08T02:11:14.493Z,11.63
2022-11-08T02:16:16.993Z,11.61
2022-11-08T02:21:42.779Z,11.62
2022-11-08T02:26:46.630Z,11.63
2022-11-08T02:31:48.670Z,11.62
2022-11-08T02:36:50.970Z,11.64
2022-11-08T02:41:53.408Z,11.65
2022-11-08T02:46:55.638Z,11.65
2022-11-08T02:51:58.605Z,11.63
2022-11-08T02:57:00.531Z,11.62
2022-11-08T03:02:02.686Z,11.62
2022-11-08T03:07:04.620Z,11.61
2022-11-08T03:12:06.850Z,11.61
2022-11-08T03:17:08.661Z,11.60
2022-11-08T03:22:10.500Z,11.59
2022-11-08T03:27:15.321Z,11.59
2022-11-08T03:32:17.157Z,11.59
2022-11-08T03:37:19.082Z,11.57
2022-11-08T03:42:20.890Z,11.56
2022-11-08T03:47:22.690Z,11.55
2022-11-08T03:52:24.678Z,11.55
2022-11-08T03:57:26.738Z,11.54
2022-11-08T04:02:28.590Z,11.51
2022-11-08T04:07:30.406Z,11.49
2022-11-08T04:12:51.027Z,11.46
2022-11-08T04:18:12.886Z,11.42
2022-11-08T04:23:16.187Z,11.36
2022-11-08T04:28:18.203Z,11.32
2022-11-08T04:33:20.910Z,11.29
2022-11-08T04:38:22.787Z,11.30
2022-11-08T04:43:24.776Z,11.31
2022-11-08T04:48:26.753Z,11.31
2022-11-08T04:53:28.633Z,11.27
2022-11-08T04:58:36.345Z,11.24
2022-11-08T05:03:38.303Z,11.21
2022-11-08T05:08:40.569Z,11.17
2022-11-08T05:13:43.273Z,11.14
2022-11-08T05:18:45.874Z,11.15
2022-11-08T05:23:50.923Z,11.16
2022-11-08T05:28:55.062Z,11.15
2022-11-08T05:33:57.003Z,11.14
2022-11-08T05:38:59.402Z,11.13
2022-11-08T05:44:01.276Z,11.12
2022-11-08T05:49:03.290Z,11.10
2022-11-08T05:54:05.754Z,11.10
2022-11-08T05:59:07.825Z,11.09
2022-11-08T06:04:10.428Z,11.10
2022-11-08T06:09:12.509Z,11.12
2022-11-08T06:14:14.383Z,11.14
2022-11-08T06:19:16.207Z,11.20
2022-11-08T06:24:18.272Z,11.23
2022-11-08T06:29:20.306Z,11.25
2022-11-08T06:34:23.337Z,11.25
2022-11-08T06:39:25.330Z,11.26
2022-11-08T06:44:27.364Z,11.26
2022-11-08T06:49:29.478Z,11.29
2022-11-08T06:54:31.422Z,11.38
2022-11-08T06:59:33.528Z,11.42
2022-11-08T07:04:36.012Z,11.47
2022-11-08T07:09:38.315Z,11.52
2022-11-08T07:14:40.340Z,11.48
2022-11-08T07:19:42.297Z,11.43
2022-11-08T07:24:44.297Z,11.40
2022-11-08T07:29:46.619Z,11.38
2022-11-08T07:34:48.550Z,11.39
2022-11-08T07:39:50.489Z,11.43
2022-11-08T07:44:52.484Z,11.48
2022-11-08T07:49:54.540Z,11.52
2022-11-08T07:54:56.409Z,11.58
2022-11-08T07:59:59.372Z,11.66
2022-11-08T08:05:14.116Z,11.73
2022-11-08T08:10:16.256Z,11.82
2022-11-08T08:15:18.289Z,11.93
2022-11-08T08:20:20.391Z,12.03
2022-11-08T08:25:22.555Z,12.12
2022-11-08T08:30:25.286Z,12.18
2022-11-08T08:35:27.275Z,12.26
2022-11-08T08:40:29.698Z,12.40
2022-11-08T08:45:35.211Z,12.53
2022-11-08T08:50:37.121Z,12.66
2022-11-08T08:55:40.505Z,12.77
2022-11-08T09:06:05.970Z,13.01
2022-11-08T09:11:08.360Z,13.11
2022-11-08T09:16:10.336Z,13.16
2022-11-08T09:21:12.107Z,13.26
2022-11-08T09:26:14.105Z,13.32
2022-11-08T09:31:16.061Z,13.39
2022-11-08T09:36:17.990Z,13.48
2022-11-08T09:41:37.936Z,13.61
2022-11-08T09:46:44.301Z,13.70
2022-11-08T09:51:47.250Z,13.79
2022-11-08T09:56:51.611Z,13.88
2022-11-08T10:01:53.555Z,14.00
2022-11-08T10:07:10.711Z,14.06
2022-11-08T10:12:56.920Z,14.12
2022-11-08T10:18:19.655Z,14.16
2022-11-08T10:23:51.751Z,14.25
2022-11-08T10:29:02.239Z,14.32
2022-11-08T10:34:14.777Z,14.39
2022-11-08T10:39:28.685Z,14.44
2022-11-08T10:44:34.000Z,14.48
2022-11-08T10:49:44.892Z,14.52
2022-11-08T10:54:56.085Z,14.56
2022-11-08T11:00:21.244Z,14.61
2022-11-08T11:05:28.766Z,14.65
2022-11-08T11:10:41.942Z,14.71
2022-11-08T11:16:05.514Z,14.72
2022-11-08T11:21:16.839Z,14.73
2022-11-08T11:26:29.016Z,14.74
2022-11-08T11:31:36.980Z,14.78
2022-11-08T11:36:39.160Z,14.79
2022-11-08T11:41:50.979Z,14.78
2022-11-08T11:47:02.858Z,14.73
2022-11-08T11:52:15.840Z,14.70
2022-11-08T11:57:32.800Z,14.68
2022-11-08T12:02:34.899Z,14.66
2022-11-08T12:07:46.099Z,14.69
2022-11-08T12:12:47.973Z,14.71
2022-11-08T12:17:58.627Z,14.71
2022-11-08T12:23:34.980Z,14.72
2022-11-08T12:28:43.183Z,14.70
2022-11-08T12:34:06.916Z,14.70
2022-11-08T12:39:27.423Z,14.69
2022-11-08T12:44:48.868Z,14.65
2022-11-08T12:50:09.229Z,14.61
2022-11-08T12:55:25.517Z,14.55
2022-11-08T13:00:29.963Z,14.51
2022-11-08T13:06:24.496Z,14.53
2022-11-08T13:11:47.763Z,14.54
2022-11-08T13:17:22.886Z,14.57
2022-11-08T13:22:33.725Z,14.53
2022-11-08T13:27:40.194Z,14.46
2022-11-08T13:33:07.528Z,14.40
2022-11-08T13:38:27.498Z,14.36
2022-11-08T13:43:32.760Z,14.34
2022-11-08T13:48:40.290Z,14.33
2022-11-08T13:53:46.045Z,14.29
2022-11-08T13:58:48.051Z,14.22
2022-11-08T14:03:52.687Z,14.15
2022-11-08T14:09:33.664Z,14.09
2022-11-08T14:14:57.756Z,14.02
2022-11-08T14:20:24.481Z,13.99
2022-11-08T14:25:34.361Z,13.94
2022-11-08T14:30:36.302Z,13.90
2022-11-08T14:36:15.107Z,13.86
2022-11-08T14:41:24.383Z,13.77
2022-11-08T14:46:31.852Z,13.70
2022-11-08T14:51:33.817Z,13.61
2022-11-08T14:56:46.184Z,13.48
2022-11-08T15:01:49.658Z,13.35
2022-11-08T15:06:57.873Z,13.23
2022-11-08T15:12:13.029Z,13.15
2022-11-08T15:17:40.767Z,13.15
2022-11-08T15:22:44.342Z,13.13
2022-11-08T15:28:13.087Z,13.14
2022-11-08T15:33:27.514Z,13.08
2022-11-08T15:38:30.351Z,13.02
2022-11-08T15:43:32.154Z,12.97
2022-11-08T15:48:34.367Z,12.91
2022-11-08T15:53:36.293Z,12.89
2022-11-08T15:58:41.272Z,12.89
2022-11-08T16:03:43.335Z,12.86
2022-11-08T16:08:45.210Z,12.82
2022-11-08T16:13:49.097Z,12.75
2022-11-08T16:24:17.062Z,12.59
2022-11-08T16:29:23.014Z,12.51
2022-11-08T16:34:24.964Z,12.43
2022-11-08T16:39:27.543Z,12.32
2022-11-08T16:44:29.433Z,12.25
2022-11-08T16:49:32.557Z,12.19
2022-11-08T16:54:34.867Z,12.13
2022-11-08T16:59:39.819Z,12.13
2022-11-08T17:04:41.710Z,12.13
2022-11-08T17:10:36.398Z,12.19
2022-11-08T17:15:38.299Z,12.21
2022-11-08T17:20:40.448Z,12.23
2022-11-08T17:25:43.800Z,12.20
2022-11-08T17:30:45.777Z,12.18
2022-11-08T17:46:35.613Z,12.09
2022-11-08T17:52:24.474Z,12.14
2022-11-08T17:57:25.692Z,12.24
2022-11-08T18:02:54.411Z,12.29
2022-11-08T18:07:56.572Z,12.31
2022-11-08T18:18:14.030Z,12.53
2022-11-08T18:23:42.377Z,12.63
2022-11-08T18:28:44.821Z,12.71
2022-11-08T18:39:18.103Z,12.74
2022-11-08T18:44:21.389Z,12.79
2022-11-08T18:49:23.759Z,12.83
2022-11-08T18:54:46.283Z,12.89
2022-11-08T18:59:48.179Z,12.93
2022-11-08T19:04:50.018Z,12.95
2022-11-08T19:09:55.798Z,12.95
2022-11-08T19:15:10.047Z,12.94
2022-11-08T19:20:12.118Z,12.93
2022-11-08T19:25:16.645Z,12.96
2022-11-08T19:30:30.616Z,13.01
2022-11-08T19:35:32.445Z,13.02
2022-11-08T19:40:34.179Z,13.07
2022-11-08T19:45:36.069Z,13.09
2022-11-08T19:50:44.537Z,13.11
2022-11-08T19:55:47.668Z,13.10
2022-11-08T20:00:49.545Z,13.09
2022-11-08T20:05:55.552Z,13.05
2022-11-08T20:10:58.799Z,13.01
2022-11-08T20:16:11.644Z,12.95
2022-11-08T20:21:14.895Z,12.91
2022-11-08T20:26:25.297Z,12.91
2022-11-08T20:31:28.631Z,12.87
2022-11-08T20:36:34.846Z,12.82
2022-11-08T20:41:41.207Z,12.78
2022-11-08T20:46:44.369Z,12.72
2022-11-08T20:51:46.914Z,12.67
2022-11-08T20:56:48.813Z,12.62
2022-11-08T21:01:51.023Z,12.56
2022-11-08T21:07:33.355Z,12.53
2022-11-08T21:12:15.104Z,12.46
2022-11-08T21:17:22.192Z,12.40
2022-11-08T21:22:25.051Z,12.40
2022-11-08T21:27:29.739Z,12.37
2022-11-08T21:32:32.234Z,12.43
2022-11-08T21:37:34.214Z,12.50
2022-11-08T21:42:39.376Z,12.54
2022-11-08T21:47:43.018Z,12.56
2022-11-08T21:52:45.162Z,12.58
2022-11-08T21:57:47.145Z,12.58
2022-11-08T22:02:49.196Z,12.59
2022-11-08T22:07:51.525Z,12.58
2022-11-08T22:12:53.706Z,12.58
2022-11-08T22:23:17.774Z,12.50
2022-11-08T22:28:19.904Z,12.45
2022-11-08T22:33:22.097Z,12.41
2022-11-08T22:38:24.358Z,12.43
2022-11-08T22:43:28.668Z,12.46
2022-11-08T22:48:30.733Z,12.48
2022-11-08T22:53:33.278Z,12.47
2022-11-08T22:58:35.339Z,12.47
2022-11-08T23:03:37.393Z,12.47
2022-11-08T23:08:39.846Z,12.46
2022-11-08T23:14:00.338Z,12.43
2022-11-08T23:19:25.702Z,12.43
2022-11-08T23:24:27.761Z,12.43
2022-11-08T23:36:12.760Z,12.43
2022-11-08T23:41:35.802Z,12.40
2022-11-08T23:46:37.757Z,12.38
2022-11-08T23:51:39.786Z,12.32
2022-11-08T23:57:06.587Z,12.27
